Time;durP1;ratioP1;P1;durP2;ratioP2;P2;SDS_P1;SDS_P2;PMS_P1;PMS_P2;Temp;Humidity;BMP_temperature;BMP_pressure;BME280_temperature;BME280_humidity;BME280_pressure;Samples;Min_cycle;Max_cycle;Signal;HPM_P1;HPM_P2
2023/03/31 00:03:12;;;;;;;4.88;0.50;;;;;;;12.54;71.13;99558.31;10127140;29;20088;-70
2023/03/31 00:08:13;;;;;;;10.18;0.80;;;;;;;12.51;71.29;99556.03;10123974;29;20158;-69
2023/03/31 00:13:15;;;;;;;6.78;0.50;;;;;;;12.43;71.81;99545.47;10128567;29;20088;-68
2023/03/31 00:18:17;;;;;;;7.63;0.60;;;;;;;12.26;72.58;99536.97;10129851;29;20103;-68
2023/03/31 00:23:26;;;;;;;4.88;1.00;;;;;;;12.32;72.36;99535.31;10113482;29;20076;-69
2023/03/31 00:28:28;;;;;;;7.35;1.30;;;;;;;12.12;72.95;99543.38;10123363;29;20075;-71
2023/03/31 00:33:29;;;;;;;9.70;1.23;;;;;;;11.98;73.65;99537.16;10118559;29;20053;-71
2023/03/31 00:38:32;;;;;;;7.65;1.13;;;;;;;11.99;73.78;99503.81;10130927;29;20523;-68
2023/03/31 00:43:36;;;;;;;11.25;1.15;;;;;;;11.99;74.08;99504.63;10129989;29;20056;-68
2023/03/31 00:48:38;;;;;;;5.10;0.80;;;;;;;11.96;73.85;99496.13;10127218;29;20044;-70
2023/03/31 00:53:40;;;;;;;4.55;0.73;;;;;;;11.99;73.92;99480.41;10123144;29;20144;-69
2023/03/31 00:58:43;;;;;;;9.07;1.30;;;;;;;11.95;74.62;99481.00;10118073;29;20105;-69
2023/03/31 01:03:46;;;;;;;9.25;1.52;;;;;;;11.98;74.86;99470.63;10105822;29;20523;-69
2023/03/31 01:08:50;;;;;;;6.43;0.60;;;;;;;11.99;74.42;99455.34;10119775;29;20044;-69
2023/03/31 01:13:54;;;;;;;9.27;1.33;;;;;;;12.06;74.50;99438.09;10089231;29;20087;-69
2023/03/31 01:18:56;;;;;;;7.68;1.10;;;;;;;12.11;74.29;99429.41;10122819;29;20053;-70
2023/03/31 01:24:23;;;;;;;14.05;1.92;;;;;;;12.06;74.61;99413.84;10105915;29;20057;-69
2023/03/31 01:29:53;;;;;;;12.43;1.13;;;;;;;12.08;74.38;99408.28;10125115;29;20588;-69
2023/03/31 01:35:27;;;;;;;11.30;1.20;;;;;;;12.01;75.05;99410.97;10122794;29;20049;-69
2023/03/31 01:40:51;;;;;;;10.23;1.30;;;;;;;11.97;75.01;99403.53;10115662;29;20498;-69
2023/03/31 01:46:13;;;;;;;8.07;1.13;;;;;;;11.98;75.22;99395.22;10132923;29;20105;-69
2023/03/31 01:51:21;;;;;;;6.72;0.80;;;;;;;11.95;75.68;99378.66;10135375;29;20148;-68
2023/03/31 01:56:37;;;;;;;;;;;;;;;11.97;75.34;99369.34;10142162;29;20144;-70
2023/03/31 02:01:49;;;;;;;7.38;1.15;;;;;;;11.98;74.89;99352.13;10142641;29;19952;-69
2023/03/31 02:06:55;;;;;;;10.48;0.80;;;;;;;12.02;74.88;99347.97;10160859;29;20052;-69
2023/03/31 02:11:58;;;;;;;8.32;1.48;;;;;;;12.05;74.93;99323.31;10152234;29;20214;-69
2023/03/31 02:17:02;;;;;;;9.23;0.77;;;;;;;12.07;75.08;99315.88;10145376;29;20053;-70
2023/03/31 02:22:06;;;;;;;10.55;1.10;;;;;;;12.04;75.03;99305.50;10115402;29;20446;-67
2023/03/31 02:27:24;;;;;;;7.40;0.93;;;;;;;12.01;74.93;99299.72;10123931;29;20107;-68
2023/03/31 02:32:31;;;;;;;8.02;0.70;;;;;;;12.02;75.20;99293.28;10137958;29;20096;-68
2023/03/31 02:37:33;;;;;;;7.82;1.60;;;;;;;11.99;75.24;99294.53;10132552;29;20047;-68
2023/03/31 02:42:39;;;;;;;7.40;1.15;;;;;;;11.96;75.50;99280.66;10147114;29;20045;-68
2023/03/31 02:47:40;;;;;;;6.13;0.93;;;;;;;11.99;75.67;99280.25;10128180;29;20048;-68
2023/03/31 02:52:56;;;;;;;8.35;1.90;;;;;;;11.99;75.20;99273.00;10142589;29;20052;-68
2023/03/31 02:58:33;;;;;;;5.25;0.60;;;;;;;12.00;75.32;99271.13;10134024;29;20460;-68
2023/03/31 03:03:43;;;;;;;5.82;0.90;;;;;;;12.00;75.50;99269.25;10137875;29;20566;-68
2023/03/31 03:08:54;;;;;;;4.40;1.42;;;;;;;12.05;75.47;99255.16;10121947;29;20108;-68
2023/03/31 03:14:23;;;;;;;8.40;1.27;;;;;;;11.89;75.54;99230.34;10126410;29;20065;-68
2023/03/31 03:19:25;;;;;;;8.80;1.42;;;;;;;11.93;75.89;99208.38;10123239;29;20396;-68
2023/03/31 03:24:28;;;;;;;8.45;1.15;;;;;;;12.08;75.79;99169.38;10122525;29;20044;-68
2023/03/31 03:29:30;;;;;;;5.60;1.05;;;;;;;12.14;75.64;99145.28;10124155;29;20045;-68
2023/03/31 03:34:31;;;;;;;12.00;1.77;;;;;;;12.19;75.31;99122.06;10123087;29;20048;-68
2023/03/31 03:39:33;;;;;;;5.00;1.10;;;;;;;12.12;75.27;99137.44;10134451;29;20068;-68
2023/03/31 03:44:34;;;;;;;16.77;1.33;;;;;;;11.94;76.05;99140.84;10143896;29;20044;-68
2023/03/31 03:49:35;;;;;;;11.32;1.60;;;;;;;11.74;76.45;99140.09;10132646;29;20049;-68
2023/03/31 03:54:37;;;;;;;8.48;0.98;;;;;;;11.74;76.93;99119.38;10138853;29;20315;-69
2023/03/31 03:59:38;;;;;;;12.93;2.03;;;;;;;11.81;76.51;99103.16;10133593;29;20123;-69
2023/03/31 04:04:39;;;;;;;5.05;0.77;;;;;;;11.89;76.49;99092.19;10137835;29;20052;-69
2023/03/31 04:09:41;;;;;;;8.98;0.90;;;;;;;11.91;76.27;99068.56;10133104;29;20036;-69
2023/03/31 04:14:42;;;;;;;11.60;1.00;;;;;;;11.93;76.13;99062.94;10134570;29;20116;-68
2023/03/31 04:19:49;;;;;;;7.88;1.10;;;;;;;11.96;76.09;99062.53;10134881;29;20127;-68
2023/03/31 04:24:51;;;;;;;8.30;0.90;;;;;;;11.89;76.32;99062.59;10138738;29;20044;-69
2023/03/31 04:29:55;;;;;;;8.82;2.20;;;;;;;11.86;76.79;99049.50;10121314;29;20056;-70
2023/03/31 04:35:02;;;;;;;6.65;1.25;;;;;;;11.76;76.27;99051.84;10116465;29;20120;-68
2023/03/31 04:40:07;;;;;;;4.90;1.00;;;;;;;11.76;76.76;99059.94;10132296;29;20056;-69
2023/03/31 04:45:12;;;;;;;10.65;1.42;;;;;;;11.75;76.69;99050.19;10130966;29;20049;-70
2023/03/31 04:50:13;;;;;;;11.98;1.55;;;;;;;11.88;76.67;99031.25;10131751;29;20464;-69
2023/03/31 04:55:17;;;;;;;8.43;1.20;;;;;;;11.94;76.58;99024.22;10129226;29;20060;-69
2023/03/31 05:00:20;;;;;;;8.32;1.20;;;;;;;12.04;76.25;98994.94;10129249;29;20080;-70
2023/03/31 05:05:21;;;;;;;13.52;1.67;;;;;;;12.18;75.80;98974.91;10125554;29;20087;-65
2023/03/31 05:10:23;;;;;;;8.10;1.40;;;;;;;12.25;75.86;98985.66;10111168;29;20055;-64
2023/03/31 05:15:24;;;;;;;8.93;2.30;;;;;;;12.17;76.07;98994.84;10129522;29;20056;-67
2023/03/31 05:20:26;;;;;;;11.77;1.77;;;;;;;11.95;76.33;99010.53;10124447;29;20076;-65
2023/03/31 05:25:31;;;;;;;10.88;2.33;;;;;;;11.89;76.94;99000.66;10127810;29;20441;-63
2023/03/31 05:30:33;;;;;;;13.63;2.13;;;;;;;11.74;77.43;99000.91;10135536;29;20038;-67
2023/03/31 05:35:34;;;;;;;15.18;3.00;;;;;;;11.80;77.46;98983.88;10140716;29;20048;-69
2023/03/31 05:40:35;;;;;;;10.77;2.38;;;;;;;11.84;77.30;98984.28;10151487;29;20051;-64
2023/03/31 05:45:37;;;;;;;10.57;2.17;;;;;;;11.77;77.34;98978.09;10167719;29;20115;-65
2023/03/31 05:50:38;;;;;;;8.45;1.88;;;;;;;11.70;77.34;98972.78;10165223;29;20040;-65
2023/03/31 05:55:40;;;;;;;14.32;1.50;;;;;;;11.77;77.79;98965.50;10148721;29;20052;-66
2023/03/31 06:00:43;;;;;;;12.85;1.85;;;;;;;11.77;77.35;98945.81;10163752;29;20036;-67
2023/03/31 06:05:48;;;;;;;9.98;2.50;;;;;;;11.83;77.79;98934.19;10179561;29;20036;-66
2023/03/31 06:10:49;;;;;;;16.17;2.35;;;;;;;11.82;77.77;98921.75;10160701;29;20419;-67
2023/03/31 06:15:53;;;;;;;7.80;1.38;;;;;;;11.90;77.13;98894.56;10128792;29;20044;-66
2023/03/31 06:20:56;;;;;;;15.55;1.92;;;;;;;11.87;77.38;98882.34;10143873;29;20522;-68
2023/03/31 06:26:03;;;;;;;14.98;2.03;;;;;;;11.98;77.45;98867.38;10129138;29;20052;-68
2023/03/31 06:31:11;;;;;;;10.35;2.33;;;;;;;11.90;77.51;98867.66;10129612;29;20049;-68
2023/03/31 06:36:15;;;;;;;9.65;1.45;;;;;;;11.99;77.67;98834.00;10124797;29;20044;-68
2023/03/31 06:41:19;;;;;;;7.00;1.50;;;;;;;12.01;77.98;98823.84;10132077;29;20068;-67
2023/03/31 06:46:20;;;;;;;8.98;1.95;;;;;;;12.09;77.97;98810.06;10123880;29;20057;-67
2023/03/31 06:51:22;;;;;;;12.57;1.83;;;;;;;12.11;77.95;98788.31;10099365;29;20045;-64
2023/03/31 06:56:23;;;;;;;12.43;1.40;;;;;;;11.99;78.39;98777.47;10125946;29;20108;-65
2023/03/31 07:01:25;;;;;;;11.80;1.20;;;;;;;12.01;78.17;98766.47;10125656;29;20107;-67
2023/03/31 07:06:26;;;;;;;11.75;1.40;;;;;;;12.16;77.82;98758.00;10120501;29;20085;-66
2023/03/31 07:11:28;;;;;;;12.88;1.58;;;;;;;12.19;78.13;98746.78;10123182;29;20136;-66
2023/03/31 07:16:30;;;;;;;15.93;1.52;;;;;;;12.22;77.93;98740.94;10120280;29;20052;-64
2023/03/31 07:21:31;;;;;;;13.32;2.47;;;;;;;12.23;78.21;98734.50;10123182;29;20044;-65
2023/03/31 07:26:33;;;;;;;11.73;2.13;;;;;;;12.20;77.90;98738.44;10125586;29;20053;-67
2023/03/31 07:31:34;;;;;;;8.95;1.83;;;;;;;12.14;78.22;98742.06;10124698;29;20124;-66
2023/03/31 07:36:36;;;;;;;12.00;2.67;;;;;;;12.00;78.22;98733.31;10104577;29;20519;-65
2023/03/31 07:41:37;;;;;;;9.52;2.45;;;;;;;11.65;79.83;98763.50;10121532;29;20050;-66
2023/03/31 07:46:39;;;;;;;10.65;2.80;;;;;;;11.64;79.93;98753.75;10123349;29;20065;-66
2023/03/31 07:51:40;;;;;;;7.93;2.25;;;;;;;11.50;80.59;98765.72;10121299;29;20071;-67
2023/03/31 07:56:42;;;;;;;12.13;2.78;;;;;;;11.40;80.95;98746.56;10129289;29;20108;-66
2023/03/31 08:01:44;;;;;;;5.70;2.20;;;;;;;11.56;80.74;98739.78;10128172;29;20049;-67
2023/03/31 08:06:46;;;;;;;7.05;3.20;;;;;;;11.66;80.23;98742.78;10123300;29;20437;-67
2023/03/31 08:11:47;;;;;;;6.60;2.45;;;;;;;11.70;80.63;98733.22;10147552;29;20080;-66
2023/03/31 08:16:50;;;;;;;4.85;1.65;;;;;;;11.90;80.55;98744.59;10156042;29;20049;-69
2023/03/31 08:21:52;;;;;;;7.78;1.90;;;;;;;12.01;80.41;98750.31;10151983;29;20039;-67
2023/03/31 08:26:53;;;;;;;15.23;3.92;;;;;;;12.19;80.10;98744.09;10152637;29;20044;-68
2023/03/31 08:31:54;;;;;;;8.07;2.70;;;;;;;12.38;79.62;98732.25;10154126;29;20115;-68
2023/03/31 08:36:56;;;;;;;7.53;3.42;;;;;;;12.52;80.02;98740.13;10156453;29;20048;-67
2023/03/31 08:42:01;;;;;;;7.47;2.45;;;;;;;12.57;80.32;98727.59;10158973;29;20064;-67
2023/03/31 08:47:06;;;;;;;6.18;2.75;;;;;;;12.78;80.36;98728.97;10172110;29;20060;-68
2023/03/31 08:52:14;;;;;;;5.00;2.33;;;;;;;12.81;80.10;98719.59;10162656;29;20051;-67
2023/03/31 08:57:27;;;;;;;4.25;1.85;;;;;;;12.78;79.86;98720.88;10152902;29;20049;-69
2023/03/31 09:03:02;;;;;;;4.18;1.73;;;;;;;12.82;79.28;98727.44;10153690;29;20048;-68
2023/03/31 09:08:21;;;;;;;5.43;1.85;;;;;;;12.92;79.02;98709.91;10138865;29;20040;-65
2023/03/31 09:13:45;;;;;;;4.90;1.83;;;;;;;12.99;78.70;98710.59;10142184;29;20071;-66
2023/03/31 09:18:47;;;;;;;4.95;1.50;;;;;;;13.13;78.70;98703.94;10142715;29;20112;-67
2023/03/31 09:23:56;;;;;;;5.00;1.13;;;;;;;13.35;78.21;98679.94;10143891;29;20808;-67
2023/03/31 09:28:59;;;;;;;5.32;2.45;;;;;;;13.44;78.61;98680.38;10121036;29;20504;-67
2023/03/31 09:34:13;;;;;;;9.18;1.83;;;;;;;13.57;78.31;98679.31;10135571;29;20058;-66
2023/03/31 09:39:14;;;;;;;5.00;1.13;;;;;;;13.82;77.66;98682.56;10134105;29;20045;-65
2023/03/31 09:44:23;;;;;;;6.05;1.20;;;;;;;14.02;77.11;98676.75;10128972;29;20111;-66
2023/03/31 09:49:27;;;;;;;4.53;0.80;;;;;;;14.12;76.86;98670.75;10129870;29;20052;-66
2023/03/31 09:54:46;;;;;;;4.70;1.27;;;;;;;14.42;75.96;98654.25;10130889;29;20044;-68
2023/03/31 09:59:50;;;;;;;3.03;0.63;;;;;;;14.61;75.35;98651.34;10133541;29;20052;-66
2023/03/31 10:04:51;;;;;;;3.78;0.77;;;;;;;14.71;74.91;98635.31;10128710;29;20068;-66
2023/03/31 10:09:54;;;;;;;5.40;0.77;;;;;;;14.81;74.11;98630.06;10131379;29;20104;-66
2023/03/31 10:15:25;;;;;;;4.93;0.85;;;;;;;15.07;73.63;98608.81;10132290;29;20096;-66
2023/03/31 10:20:35;;;;;;;5.75;0.82;;;;;;;15.27;72.91;98614.50;10127239;29;20040;-68
2023/03/31 10:25:37;;;;;;;5.18;0.82;;;;;;;15.19;72.46;98608.72;10140412;29;20134;-67
2023/03/31 10:30:40;;;;;;;6.88;1.00;;;;;;;15.04;72.09;98622.84;10128702;29;20052;-66
2023/03/31 10:35:42;;;;;;;13.45;1.50;;;;;;;14.55;71.73;98636.09;10152536;29;20053;-67
2023/03/31 10:40:53;;;;;;;3.30;0.60;;;;;;;13.73;72.68;98642.66;10154304;29;20100;-69
2023/03/31 10:56:49;;;;;;;3.70;0.30;;;;;;;11.89;75.67;98634.47;10827459;23;20108;-68
2023/03/31 11:02:04;;;;;;;4.07;0.32;;;;;;;11.94;75.63;98633.75;10198603;29;20123;-68
2023/03/31 11:07:28;;;;;;;3.13;0.30;;;;;;;12.04;75.92;98624.09;10206241;29;20040;-68
2023/03/31 11:18:18;;;;;;;4.82;0.52;;;;;;;12.24;75.54;98601.44;11867481;23;19947;-68
2023/03/31 11:23:52;;;;;;;6.47;0.30;;;;;;;12.45;75.48;98603.59;10203707;29;20071;-69
2023/03/31 11:29:16;;;;;;;4.55;0.50;;;;;;;12.66;75.53;98609.50;10201857;28;20095;-68
2023/03/31 11:34:35;;;;;;;4.25;0.30;;;;;;;12.86;75.51;98590.28;10189120;29;20096;-69
2023/03/31 11:39:56;;;;;;;2.65;0.30;;;;;;;13.03;75.56;98585.00;10201755;29;20041;-68
2023/03/31 11:45:15;;;;;;;6.07;0.70;;;;;;;13.24;75.30;98588.97;10193315;28;20068;-68
2023/03/31 11:50:25;;;;;;;8.10;1.40;;;;;;;13.51;74.65;98577.66;10184704;29;20052;-69
2023/03/31 11:55:30;;;;;;;2.00;0.90;;;;;;;13.76;74.12;98588.97;10189472;29;20047;-69
2023/03/31 12:00:43;;;;;;;2.58;0.40;;;;;;;14.05;73.30;98573.59;10192016;29;20044;-68
2023/03/31 12:05:50;;;;;;;5.90;0.40;;;;;;;14.35;72.82;98567.06;10190233;29;20052;-69
2023/03/31 12:11:01;;;;;;;2.50;0.30;;;;;;;15.00;71.96;98556.75;10191923;29;20048;-70
2023/03/31 12:16:33;;;;;;;6.13;0.73;;;;;;;15.32;71.34;98556.09;10185156;29;20076;-70
2023/03/31 12:22:06;;;;;;;6.35;0.50;;;;;;;15.50;70.72;98550.38;10153297;29;20040;-68
2023/03/31 12:27:36;;;;;;;8.45;0.55;;;;;;;15.56;70.18;98549.38;10101527;29;20041;-69
2023/03/31 12:32:48;;;;;;;4.45;0.70;;;;;;;15.01;71.57;98547.56;10097082;29;20059;-69
2023/03/31 12:38:08;;;;;;;7.85;1.02;;;;;;;14.66;71.90;98535.16;10099401;29;20417;-70
2023/03/31 12:43:31;;;;;;;4.72;0.30;;;;;;;14.51;71.43;98534.88;10106657;29;20516;-69
2023/03/31 12:49:08;;;;;;;7.00;2.08;;;;;;;14.48;70.41;98526.22;10096169;29;20069;-69
2023/03/31 12:54:53;;;;;;;5.40;0.80;;;;;;;14.44;70.07;98540.47;10104629;29;20133;-69
2023/03/31 13:00:11;;;;;;;4.18;0.45;;;;;;;14.49;69.08;98537.84;10105119;29;20083;-69
2023/03/31 13:05:37;;;;;;;3.08;0.20;;;;;;;14.82;68.83;98534.31;10102980;29;20081;-69
2023/03/31 13:10:59;;;;;;;3.50;0.30;;;;;;;15.21;68.12;98525.38;10109856;29;20556;-70
2023/03/31 13:16:01;;;;;;;6.05;1.02;;;;;;;15.56;68.18;98500.63;10104408;29;20405;-70
2023/03/31 13:21:04;;;;;;;2.85;0.30;;;;;;;15.96;67.55;98510.25;10103961;29;20108;-70
2023/03/31 13:26:32;;;;;;;2.17;0.40;;;;;;;16.11;66.76;98514.16;10108854;29;20048;-71
2023/03/31 13:31:59;;;;;;;3.78;0.40;;;;;;;16.28;66.72;98500.50;10107093;29;20049;-71
2023/03/31 13:37:43;;;;;;;4.85;0.85;;;;;;;16.29;66.71;98486.69;10111437;29;20056;-71
2023/03/31 13:42:57;;;;;;;6.18;0.30;;;;;;;16.53;65.68;98489.00;10100914;29;20064;-72
2023/03/31 13:48:26;;;;;;;3.45;0.47;;;;;;;16.83;64.85;98488.44;10097527;29;20052;-72
2023/03/31 13:54:02;;;;;;;9.20;1.05;;;;;;;17.26;63.84;98467.44;10117473;29;20060;-71
2023/03/31 13:59:41;;;;;;;8.60;0.95;;;;;;;17.58;62.69;98464.53;10118557;29;20580;-71
2023/03/31 14:05:24;;;;;;;2.05;0.10;;;;;;;17.47;60.34;98460.16;10092179;29;20053;-73
2023/03/31 14:10:34;;;;;;;2.42;0.30;;;;;;;17.66;58.31;98467.84;10069602;29;20599;-71
2023/03/31 14:15:39;;;;;;;3.08;0.05;;;;;;;17.98;57.06;98470.34;10104875;29;20061;-72
2023/03/31 14:20:52;;;;;;;1.98;0.10;;;;;;;17.94;56.76;98470.06;10106975;29;20045;-73
2023/03/31 14:26:05;;;;;;;0.98;0.20;;;;;;;17.82;55.89;98464.84;10104575;29;20084;-72
2023/03/31 14:31:33;;;;;;;1.98;0.32;;;;;;;17.47;56.31;98479.19;10103885;29;20744;-69
2023/03/31 14:36:56;;;;;;;3.10;0.10;;;;;;;17.69;56.73;98462.66;10100934;29;20056;-72
2023/03/31 14:42:02;;;;;;;4.45;0.35;;;;;;;17.79;57.45;98453.69;10112904;29;20073;-73
2023/03/31 14:47:05;;;;;;;2.70;0.28;;;;;;;18.66;57.81;98441.97;10099423;29;20056;-73
2023/03/31 14:52:24;;;;;;;1.65;0.30;;;;;;;19.00;56.84;98445.72;10115065;29;20041;-73
2023/03/31 14:57:36;;;;;;;1.73;0.30;;;;;;;18.43;55.60;98450.47;10100607;29;20044;-72
2023/03/31 15:02:43;;;;;;;2.50;0.30;;;;;;;18.09;55.88;98443.94;10105433;29;20048;-72
2023/03/31 15:07:44;;;;;;;5.63;0.30;;;;;;;17.77;56.19;98455.88;10100512;29;20645;-72
2023/03/31 15:12:48;;;;;;;5.20;0.40;;;;;;;17.34;56.32;98458.78;10101494;29;20109;-72
2023/03/31 15:17:50;;;;;;;3.92;0.30;;;;;;;17.03;57.43;98463.28;10100376;29;20080;-72
2023/03/31 15:22:53;;;;;;;6.55;0.40;;;;;;;15.80;61.17;98486.81;10098945;29;20063;-70
2023/03/31 15:28:03;;;;;;;6.57;0.60;;;;;;;15.21;62.92;98463.94;10102657;29;20049;-70
2023/03/31 15:33:07;;;;;;;3.45;0.20;;;;;;;15.22;63.22;98459.31;10098564;29;20047;-70
2023/03/31 15:38:20;;;;;;;4.35;0.95;;;;;;;15.10;63.14;98486.53;10103928;29;20081;-70
2023/03/31 15:43:29;;;;;;;0.85;0.15;;;;;;;15.05;62.58;98505.41;10105093;29;20144;-68
2023/03/31 15:48:36;;;;;;;2.70;0.20;;;;;;;14.96;62.15;98518.53;10098836;29;20056;-70
2023/03/31 15:53:52;;;;;;;1.30;0.30;;;;;;;14.84;62.67;98518.66;10099223;29;20484;-70
2023/03/31 15:59:02;;;;;;;2.63;0.45;;;;;;;14.98;62.39;98504.78;10098698;29;20068;-70
2023/03/31 16:04:09;;;;;;;3.20;0.30;;;;;;;15.04;62.52;98491.03;10083147;29;20092;-70
2023/03/31 16:09:31;;;;;;;;;;;;;;;15.07;63.94;98487.03;10099171;29;20564;-70
2023/03/31 16:14:37;;;;;;;2.17;0.30;;;;;;;15.15;63.37;98493.91;10091035;29;19931;-70
2023/03/31 16:19:50;;;;;;;4.63;0.50;;;;;;;15.24;63.64;98471.56;10099216;29;20144;-70
2023/03/31 16:24:52;;;;;;;6.70;0.57;;;;;;;15.13;63.85;98487.94;10101561;29;20155;-70
2023/03/31 16:30:06;;;;;;;2.58;0.20;;;;;;;14.86;64.32;98494.06;10101178;29;20080;-70
2023/03/31 16:35:07;;;;;;;2.67;0.30;;;;;;;14.33;66.04;98509.75;10099774;29;20048;-71
2023/03/31 16:40:09;;;;;;;3.20;0.32;;;;;;;13.40;68.97;98523.47;10104903;29;20107;-71
2023/03/31 16:45:12;;;;;;;3.92;0.45;;;;;;;12.77;71.15;98505.41;10101707;29;20056;-66
2023/03/31 16:50:17;;;;;;;2.25;0.40;;;;;;;12.74;71.20;98495.09;10100382;29;20068;-65
2023/03/31 16:55:18;;;;;;;7.45;1.58;;;;;;;12.64;71.97;98511.88;10095995;29;20064;-66
2023/03/31 17:00:19;;;;;;;3.08;0.60;;;;;;;12.63;72.28;98502.13;10103474;29;20128;-65
2023/03/31 17:05:21;;;;;;;3.47;0.60;;;;;;;12.56;72.44;98510.34;10106741;29;20456;-65
2023/03/31 17:10:23;;;;;;;6.75;0.65;;;;;;;12.49;72.86;98510.44;10102788;29;20053;-65
2023/03/31 17:15:24;;;;;;;9.35;0.60;;;;;;;12.43;73.11;98511.38;10110983;29;20115;-64
2023/03/31 17:20:26;;;;;;;9.25;0.65;;;;;;;12.41;73.23;98512.69;10105672;29;20049;-63
2023/03/31 17:25:27;;;;;;;7.20;1.73;;;;;;;12.47;73.37;98509.06;10105314;29;20081;-63
2023/03/31 17:30:30;;;;;;;9.45;1.85;;;;;;;12.45;73.69;98511.97;10104583;29;20613;-63
2023/03/31 17:35:32;;;;;;;4.90;1.20;;;;;;;12.43;73.68;98516.78;10106478;29;20135;-66
2023/03/31 17:40:33;;;;;;;4.15;0.77;;;;;;;12.36;74.08;98523.31;10106289;29;20454;-67
2023/03/31 17:45:35;;;;;;;2.95;0.30;;;;;;;12.40;74.55;98522.66;10106708;29;20076;-66
2023/03/31 17:50:36;;;;;;;5.28;1.23;;;;;;;12.36;74.56;98531.41;10105018;29;20045;-65
2023/03/31 17:55:38;;;;;;;4.97;0.63;;;;;;;12.30;75.10;98536.69;10106810;29;20055;-64
2023/03/31 18:00:40;;;;;;;6.70;0.50;;;;;;;12.18;75.70;98546.59;10105871;29;20041;-65
2023/03/31 18:05:42;;;;;;;8.40;0.85;;;;;;;12.19;75.70;98556.34;10107017;29;20462;-64
2023/03/31 18:10:43;;;;;;;6.25;1.88;;;;;;;12.15;76.11;98549.78;10104064;29;20135;-64
2023/03/31 18:15:47;;;;;;;9.20;1.60;;;;;;;12.13;76.30;98549.19;10103733;29;20118;-69
2023/03/31 18:20:49;;;;;;;5.22;0.82;;;;;;;12.09;76.70;98558.78;10107770;29;20136;-67
2023/03/31 18:25:51;;;;;;;5.68;0.80;;;;;;;12.08;76.58;98549.88;10105426;29;20048;-68
2023/03/31 18:30:53;;;;;;;8.73;0.80;;;;;;;12.13;76.64;98549.19;10093082;29;20049;-69
2023/03/31 18:35:57;;;;;;;6.07;0.57;;;;;;;12.23;76.40;98548.63;10116181;29;20143;-67
2023/03/31 18:40:59;;;;;;;10.20;1.23;;;;;;;12.15;77.11;98560.56;10115302;29;20108;-67
2023/03/31 18:46:00;;;;;;;7.05;0.80;;;;;;;12.12;77.41;98562.88;10120811;29;20056;-67
2023/03/31 18:51:03;;;;;;;7.10;0.85;;;;;;;11.93;77.88;98557.56;10099205;29;20532;-67
2023/03/31 18:56:05;;;;;;;5.72;0.63;;;;;;;11.91;77.71;98556.97;10115354;29;20063;-67
2023/03/31 19:01:06;;;;;;;4.55;0.57;;;;;;;11.87;77.10;98555.75;10119316;29;20079;-69
2023/03/31 19:06:11;;;;;;;4.75;0.57;;;;;;;11.89;76.69;98562.56;10115435;29;20104;-68
2023/03/31 19:11:14;;;;;;;3.70;0.35;;;;;;;11.82;76.79;98561.81;10099638;29;20094;-68
2023/03/31 19:16:17;;;;;;;7.32;1.00;;;;;;;11.83;76.39;98576.13;10103936;29;20456;-68
2023/03/31 19:21:19;;;;;;;2.10;0.40;;;;;;;11.90;76.35;98574.97;10108832;29;20607;-73
2023/03/31 19:26:21;;;;;;;6.07;0.50;;;;;;;11.92;75.94;98576.63;10104545;29;20112;-73
2023/03/31 19:31:23;;;;;;;6.65;0.60;;;;;;;12.01;75.64;98583.34;10108577;29;20520;-72
2023/03/31 19:36:24;;;;;;;4.03;0.50;;;;;;;12.09;75.40;98573.06;10124122;29;20057;-74
2023/03/31 19:41:26;;;;;;;3.67;0.63;;;;;;;12.21;74.83;98570.41;10121108;29;20053;-75
2023/03/31 19:46:29;;;;;;;4.97;0.40;;;;;;;12.16;74.92;98569.44;10097323;29;20053;-72
2023/03/31 19:51:31;;;;;;;1.00;0.40;;;;;;;12.18;75.04;98575.41;10109045;29;20044;-76
2023/03/31 19:56:32;;;;;;;3.85;0.55;;;;;;;12.23;75.21;98565.59;10108881;29;20040;-71
2023/03/31 20:01:35;;;;;;;4.43;0.63;;;;;;;12.24;74.98;98561.03;10110530;29;20488;-72
2023/03/31 20:06:36;;;;;;;4.75;0.30;;;;;;;12.30;74.94;98558.25;10079593;29;20041;-71
2023/03/31 20:11:38;;;;;;;3.00;0.45;;;;;;;12.30;74.96;98552.00;10103808;29;20079;-73
2023/03/31 20:16:40;;;;;;;3.08;0.25;;;;;;;12.32;74.66;98547.22;10109424;29;20049;-70
2023/03/31 20:21:43;;;;;;;1.88;0.30;;;;;;;12.37;74.44;98550.03;10105729;29;20053;-71
2023/03/31 20:26:44;;;;;;;1.98;0.30;;;;;;;12.43;73.62;98562.59;10093269;29;20512;-69
2023/03/31 20:31:46;;;;;;;6.35;0.40;;;;;;;12.45;73.79;98563.16;10103985;29;20053;-69
2023/03/31 20:36:48;;;;;;;3.70;0.43;;;;;;;12.52;73.34;98556.84;10103911;29;20063;-69
2023/03/31 20:41:50;;;;;;;3.75;0.40;;;;;;;12.52;72.86;98563.09;10115492;29;20068;-70
2023/03/31 20:46:52;;;;;;;4.82;0.40;;;;;;;12.57;72.63;98568.56;10112676;29;20060;-70
2023/03/31 20:51:55;;;;;;;2.70;0.40;;;;;;;12.61;72.69;98569.75;10113876;29;20053;-66
2023/03/31 20:56:56;;;;;;;3.63;0.60;;;;;;;12.58;72.22;98564.00;10120281;29;20112;-72
2023/03/31 21:01:58;;;;;;;3.50;0.28;;;;;;;12.61;71.91;98569.75;10118108;29;20056;-72
2023/03/31 21:07:00;;;;;;;3.05;0.45;;;;;;;12.62;71.37;98575.97;10122673;29;20053;-76
2023/03/31 21:12:03;;;;;;;1.75;0.30;;;;;;;12.65;71.06;98579.00;10106693;29;20064;-75
2023/03/31 21:17:05;;;;;;;2.95;0.17;;;;;;;12.72;71.07;98580.78;10106359;29;20049;-73
2023/03/31 21:22:06;;;;;;;3.42;0.55;;;;;;;12.70;71.06;98578.31;10130571;29;20053;-76
2023/03/31 21:27:08;;;;;;;2.47;0.20;;;;;;;12.70;70.14;98579.16;10137138;29;20049;-73
2023/03/31 21:32:09;;;;;;;4.15;0.40;;;;;;;12.68;69.72;98577.75;10113074;29;20079;-72
2023/03/31 21:37:11;;;;;;;1.88;0.30;;;;;;;12.73;70.24;98574.34;10118433;29;20052;-70
2023/03/31 21:42:12;;;;;;;2.60;0.30;;;;;;;12.72;69.95;98575.38;10136484;29;20045;-74
2023/03/31 21:47:14;;;;;;;3.33;0.60;;;;;;;12.75;69.93;98583.81;10143859;29;20056;-72
2023/03/31 21:52:16;;;;;;;4.05;0.40;;;;;;;12.70;70.00;98570.25;10143224;29;20052;-73
2023/03/31 21:57:17;;;;;;;4.32;0.43;;;;;;;12.73;69.83;98569.75;10143259;29;20469;-71
2023/03/31 22:02:18;;;;;;;7.10;0.50;;;;;;;12.69;69.54;98576.66;10135211;29;20068;-73
2023/03/31 22:07:20;;;;;;;4.55;0.13;;;;;;;12.76;69.41;98560.41;10116962;29;20065;-73
2023/03/31 22:12:21;;;;;;;6.50;1.02;;;;;;;12.66;69.39;98572.56;10143198;29;20100;-72
2023/03/31 22:17:24;;;;;;;3.22;0.20;;;;;;;12.71;69.40;98563.78;10129596;29;20378;-73
2023/03/31 22:22:26;;;;;;;3.42;0.38;;;;;;;12.79;69.24;98560.72;10114974;29;20168;-73
2023/03/31 22:27:27;;;;;;;3.35;0.40;;;;;;;12.77;69.01;98570.94;10130611;29;20460;-72
2023/03/31 22:32:29;;;;;;;3.90;0.30;;;;;;;12.83;68.72;98567.28;10130487;29;20049;-72
2023/03/31 22:37:31;;;;;;;3.05;0.50;;;;;;;12.84;69.01;98566.25;10128622;29;20065;-74
2023/03/31 22:42:33;;;;;;;6.13;0.40;;;;;;;12.65;69.43;98568.22;10133061;29;20044;-72
2023/03/31 22:47:35;;;;;;;3.10;0.30;;;;;;;12.65;69.48;98564.72;10131945;29;20040;-72
2023/03/31 22:52:36;;;;;;;4.70;0.40;;;;;;;12.69;69.14;98560.50;10133522;29;20076;-73
2023/03/31 22:57:38;;;;;;;3.40;0.30;;;;;;;12.75;68.99;98570.34;10136716;29;20052;-73
2023/03/31 23:02:40;;;;;;;4.13;0.40;;;;;;;12.83;68.43;98567.28;10133879;29;20417;-73
2023/03/31 23:07:41;;;;;;;1.65;0.30;;;;;;;12.87;68.63;98563.09;10114508;29;20064;-73
2023/03/31 23:12:43;;;;;;;4.10;0.45;;;;;;;12.85;68.33;98559.78;10136551;29;20073;-74
2023/03/31 23:17:44;;;;;;;5.95;0.35;;;;;;;12.80;68.47;98559.69;10119139;29;20275;-67
2023/03/31 23:22:46;;;;;;;2.97;0.30;;;;;;;12.81;68.38;98555.09;10128898;29;20080;-67
2023/03/31 23:27:48;;;;;;;3.30;0.40;;;;;;;12.77;68.57;98556.63;10136153;29;20052;-68
2023/03/31 23:32:49;;;;;;;1.00;0.30;;;;;;;12.72;68.42;98559.19;10134212;29;20045;-70
2023/03/31 23:37:50;;;;;;;3.30;0.40;;;;;;;12.73;68.05;98567.06;10129606;29;20049;-69
2023/03/31 23:42:52;;;;;;;3.53;0.30;;;;;;;12.78;68.11;98555.59;10133132;29;20088;-70
2023/03/31 23:47:53;;;;;;;1.45;0.20;;;;;;;12.74;67.99;98552.53;10132085;29;20136;-71
2023/03/31 23:52:58;;;;;;;5.82;1.33;;;;;;;12.78;67.87;98553.72;10129146;29;20445;-70
2023/03/31 23:57:59;;;;;;;7.07;0.40;;;;;;;12.76;67.52;98550.44;10126566;29;20056;-70
